Time;durP1;ratioP1;P1;durP2;ratioP2;P2;SDS_P1;SDS_P2;PMS_P1;PMS_P2;Temp;Humidity;BMP_temperature;BMP_pressure;BME280_temperature;BME280_humidity;BME280_pressure;Samples;Min_cycle;Max_cycle;Signal;HPM_P1;HPM_P2
2023/11/11 00:01:55;;;;;;;7.20;3.78;;;7.40;99.90;;;;;;4980308;28;20098;-83
2023/11/11 00:04:21;;;;;;;4.97;3.72;;;7.40;99.90;;;;;;4965533;28;20539;-84
2023/11/11 00:06:47;;;;;;;6.13;3.53;;;7.40;99.90;;;;;;4992690;28;20130;-81
2023/11/11 00:09:14;;;;;;;6.07;3.47;;;7.40;99.90;;;;;;4955808;28;20550;-83
2023/11/11 00:11:40;;;;;;;6.90;4.25;;;7.50;99.90;;;;;;4961308;28;20030;-83
2023/11/11 00:14:08;;;;;;;4.47;3.50;;;7.50;99.90;;;;;;4965380;28;20030;-84
2023/11/11 00:16:34;;;;;;;7.25;4.03;;;7.50;99.90;;;;;;4955789;28;20049;-83
2023/11/11 00:19:01;;;;;;;4.38;3.88;;;7.50;99.90;;;;;;4980941;28;20094;-83
2023/11/11 00:21:27;;;;;;;5.07;3.90;;;7.40;99.90;;;;;;4949195;28;20641;-83
2023/11/11 00:23:56;;;;;;;3.97;3.58;;;7.50;99.90;;;;;;4965786;28;20047;-83
2023/11/11 00:26:22;;;;;;;6.57;4.45;;;7.40;99.90;;;;;;4975433;28;20085;-82
2023/11/11 00:28:48;;;;;;;4.57;3.97;;;7.40;99.90;;;;;;4971817;28;20057;-82
2023/11/11 00:31:13;;;;;;;6.05;4.35;;;7.50;99.90;;;;;;4969892;28;20037;-84
2023/11/11 00:33:39;;;;;;;5.13;4.03;;;7.50;99.90;;;;;;4961373;28;20860;-82
2023/11/11 00:36:12;;;;;;;6.15;4.10;;;7.40;99.90;;;;;;4970218;28;20022;-81
2023/11/11 00:38:37;;;;;;;6.00;3.92;;;7.40;99.90;;;;;;4978729;28;20030;-81
2023/11/11 00:41:03;;;;;;;7.40;4.15;;;7.40;99.90;;;;;;4960517;28;20053;-82
2023/11/11 00:43:29;;;;;;;5.45;4.10;;;7.40;99.90;;;;;;4959853;28;20034;-82
2023/11/11 00:45:55;;;;;;;5.75;4.05;;;7.40;99.90;;;;;;4958021;28;20045;-82
2023/11/11 00:48:21;;;;;;;6.18;4.40;;;7.40;99.90;;;;;;4952177;28;20027;-82
2023/11/11 00:50:47;;;;;;;4.72;4.22;;;7.40;99.90;;;;;;4980459;28;20023;-82
2023/11/11 00:53:14;;;;;;;5.03;4.50;;;7.40;99.90;;;;;;4973563;28;20037;-81
2023/11/11 00:55:40;;;;;;;9.07;4.38;;;7.50;99.90;;;;;;4958732;28;20550;-81
2023/11/11 00:58:06;;;;;;;6.40;4.78;;;7.50;99.90;;;;;;4943027;28;20598;-82
2023/11/11 01:00:32;;;;;;;5.40;4.18;;;7.50;99.90;;;;;;4994919;28;20045;-82
2023/11/11 01:02:58;;;;;;;5.55;4.43;;;7.40;99.90;;;;;;4964880;28;21548;-81
2023/11/11 01:05:24;;;;;;;6.72;4.57;;;7.40;99.90;;;;;;4954131;28;20127;-82
2023/11/11 01:07:49;;;;;;;5.40;4.07;;;7.50;99.90;;;;;;4966957;28;20153;-81
2023/11/11 01:10:18;;;;;;;6.43;4.10;;;7.40;99.90;;;;;;4934150;28;20124;-81
2023/11/11 01:12:44;;;;;;;5.57;5.00;;;7.40;99.90;;;;;;4958579;28;20025;-82
2023/11/11 01:15:12;;;;;;;5.90;5.18;;;7.50;99.90;;;;;;4980866;28;20022;-81
2023/11/11 01:17:38;;;;;;;4.78;4.25;;;7.50;99.90;;;;;;4969947;28;20033;-82
2023/11/11 01:20:04;;;;;;;5.53;4.93;;;7.40;99.90;;;;;;4954898;28;20034;-81
2023/11/11 01:22:31;;;;;;;6.75;4.45;;;7.50;99.90;;;;;;4962420;28;20150;-81
2023/11/11 01:24:57;;;;;;;5.65;4.53;;;7.50;99.90;;;;;;4963351;28;20113;-82
2023/11/11 01:27:23;;;;;;;5.00;4.45;;;7.40;99.90;;;;;;4940974;28;20034;-81
2023/11/11 01:29:49;;;;;;;8.35;4.65;;;7.40;99.90;;;;;;4967797;28;20030;-81
2023/11/11 01:32:17;;;;;;;5.78;4.25;;;7.50;99.90;;;;;;4964481;28;20037;-81
2023/11/11 01:34:43;;;;;;;5.45;4.43;;;7.50;99.90;;;;;;4950539;28;20014;-80
2023/11/11 01:37:08;;;;;;;7.57;5.15;;;7.50;99.90;;;;;;4961352;28;20168;-81
2023/11/11 01:39:34;;;;;;;5.82;4.10;;;7.50;99.90;;;;;;4963176;28;20109;-81
2023/11/11 01:42:00;;;;;;;5.78;4.20;;;7.50;99.90;;;;;;4981908;28;20038;-82
2023/11/11 01:44:26;;;;;;;7.15;4.55;;;7.50;99.90;;;;;;4952655;28;20032;-80
2023/11/11 01:46:52;;;;;;;6.78;4.13;;;7.40;99.90;;;;;;4951330;28;20509;-81
2023/11/11 01:49:18;;;;;;;5.25;4.00;;;7.40;99.90;;;;;;4955675;28;20102;-81
2023/11/11 01:51:44;;;;;;;5.95;5.35;;;7.50;99.90;;;;;;4950442;28;21449;-81
2023/11/11 01:54:11;;;;;;;6.93;4.70;;;7.40;99.90;;;;;;4960250;28;20029;-81
2023/11/11 01:56:38;;;;;;;5.20;4.70;;;7.40;99.90;;;;;;4961612;28;20042;-82
2023/11/11 01:59:05;;;;;;;5.88;4.78;;;7.40;99.90;;;;;;4954665;28;20023;-80
2023/11/11 02:01:31;;;;;;;5.18;4.60;;;7.40;99.90;;;;;;4951110;28;20030;-81
2023/11/11 02:03:57;;;;;;;7.95;4.93;;;7.40;99.90;;;;;;4966672;28;20033;-81
2023/11/11 02:06:22;;;;;;;6.63;4.82;;;7.40;99.90;;;;;;4967833;28;20102;-82
2023/11/11 02:08:49;;;;;;;6.85;4.82;;;7.40;99.90;;;;;;4970879;28;20022;-81
2023/11/11 02:11:15;;;;;;;8.13;4.90;;;7.40;99.90;;;;;;4976904;28;20031;-81
2023/11/11 02:13:41;;;;;;;5.40;4.55;;;7.40;99.90;;;;;;4959549;28;20022;-81
2023/11/11 02:16:09;;;;;;;5.65;4.88;;;7.40;99.90;;;;;;4965365;28;20034;-81
2023/11/11 02:18:34;;;;;;;6.63;5.45;;;7.40;99.90;;;;;;4946852;28;20030;-81
2023/11/11 02:21:00;;;;;;;8.18;5.25;;;7.40;99.90;;;;;;4962963;28;20038;-81
2023/11/11 02:23:34;;;;;;;6.90;5.18;;;7.40;99.90;;;;;;4961409;28;20487;-81
2023/11/11 02:26:01;;;;;;;9.23;6.25;;;7.40;99.90;;;;;;4970907;28;20034;-81
2023/11/11 02:28:28;;;;;;;6.65;5.60;;;7.40;99.90;;;;;;4949825;28;20496;-81
2023/11/11 02:30:53;;;;;;;6.22;4.97;;;7.40;99.90;;;;;;4949270;28;20095;-82
2023/11/11 02:33:19;;;;;;;6.45;5.53;;;7.40;99.90;;;;;;4954682;28;20636;-81
2023/11/11 02:35:45;;;;;;;7.70;5.40;;;7.40;99.90;;;;;;4977253;28;20535;-82
2023/11/11 02:38:12;;;;;;;8.95;4.88;;;7.40;99.90;;;;;;4977999;28;20077;-82
2023/11/11 02:40:41;;;;;;;7.57;6.03;;;7.40;99.90;;;;;;4970472;28;20030;-82
2023/11/11 02:43:07;;;;;;;6.70;4.70;;;7.40;99.90;;;;;;4969824;28;20114;-85
2023/11/11 02:45:33;;;;;;;5.40;4.68;;;7.40;99.90;;;;;;4963933;28;20034;-81
2023/11/11 02:48:00;;;;;;;7.88;5.03;;;7.40;99.90;;;;;;4967978;28;21004;-81
2023/11/11 02:50:27;;;;;;;5.18;4.68;;;7.40;99.90;;;;;;4966918;28;20023;-83
2023/11/11 02:52:52;;;;;;;6.68;5.22;;;7.40;99.90;;;;;;4956784;28;20030;-83
2023/11/11 02:55:19;;;;;;;5.95;4.97;;;7.40;99.90;;;;;;4952053;28;20031;-82
2023/11/11 02:57:45;;;;;;;7.32;5.00;;;7.40;99.90;;;;;;4981433;28;20542;-81
2023/11/11 03:00:11;;;;;;;6.72;4.70;;;7.50;99.90;;;;;;4952974;28;20097;-81
2023/11/11 03:02:38;;;;;;;5.22;4.72;;;7.50;99.90;;;;;;4977718;23;20076;-61
2023/11/11 03:05:04;;;;;;;6.90;5.28;;;7.50;99.90;;;;;;4947468;28;20014;-56
2023/11/11 03:07:30;;;;;;;6.32;5.40;;;7.50;99.90;;;;;;4896343;28;21696;-59
2023/11/11 03:09:56;;;;;;;7.38;5.72;;;7.50;99.90;;;;;;4962569;28;20494;-58
2023/11/11 03:12:22;;;;;;;7.28;5.55;;;7.50;99.90;;;;;;4927308;28;20478;-56
2023/11/11 03:14:47;;;;;;;8.80;5.65;;;7.50;99.90;;;;;;4899617;28;20028;-57
2023/11/11 03:17:13;;;;;;;7.90;6.00;;;7.50;99.90;;;;;;4941491;28;20048;-55
2023/11/11 03:19:40;;;;;;;11.65;6.93;;;7.40;99.90;;;;;;4957598;28;20030;-58
2023/11/11 03:22:06;;;;;;;8.25;5.85;;;7.50;99.90;;;;;;4882979;28;20368;-61
2023/11/11 03:24:31;;;;;;;7.85;5.75;;;7.40;99.90;;;;;;4897500;28;20038;-58
2023/11/11 03:26:57;;;;;;;7.88;5.75;;;7.40;99.90;;;;;;4906415;28;21440;-58
2023/11/11 03:29:23;;;;;;;7.82;5.57;;;7.50;99.90;;;;;;4977676;28;20096;-57
2023/11/11 03:31:48;;;;;;;6.05;5.45;;;7.40;99.90;;;;;;4953761;28;20105;-59
2023/11/11 03:34:14;;;;;;;7.85;5.70;;;7.40;99.90;;;;;;4921512;28;20022;-60
2023/11/11 03:36:39;;;;;;;7.80;5.82;;;7.40;99.90;;;;;;4919088;28;21632;-56
2023/11/11 03:39:05;;;;;;;7.13;6.00;;;7.40;99.90;;;;;;4965624;28;20033;-59
2023/11/11 03:41:30;;;;;;;8.68;5.90;;;7.40;99.90;;;;;;4987089;28;20029;-58
2023/11/11 03:43:56;;;;;;;7.78;6.18;;;7.40;99.90;;;;;;4937725;28;20022;-59
2023/11/11 03:46:22;;;;;;;8.48;5.65;;;7.40;99.90;;;;;;4944844;28;20030;-59
2023/11/11 03:48:47;;;;;;;6.45;5.68;;;7.40;99.90;;;;;;4939643;28;20033;-60
2023/11/11 03:51:13;;;;;;;8.30;6.03;;;7.40;99.90;;;;;;4888842;28;20080;-58
2023/11/11 03:53:38;;;;;;;8.23;6.32;;;7.40;99.90;;;;;;4991578;28;20541;-61
2023/11/11 03:56:04;;;;;;;7.60;5.80;;;7.40;99.90;;;;;;4919901;28;20517;-59
2023/11/11 03:58:30;;;;;;;7.75;6.13;;;7.40;99.90;;;;;;4954739;28;20072;-60
2023/11/11 04:00:56;;;;;;;8.75;5.97;;;7.40;99.90;;;;;;4937497;28;20037;-59
2023/11/11 04:03:21;;;;;;;7.90;6.15;;;7.40;99.90;;;;;;4895821;28;20033;-59
2023/11/11 04:05:47;;;;;;;7.97;5.60;;;7.40;99.90;;;;;;4962132;28;20090;-57
2023/11/11 04:08:13;;;;;;;7.63;5.70;;;7.40;99.90;;;;;;4961318;28;20030;-59
2023/11/11 04:10:39;;;;;;;8.85;6.65;;;7.30;99.90;;;;;;4952029;28;20471;-59
2023/11/11 04:13:05;;;;;;;8.63;5.72;;;7.30;99.90;;;;;;4983929;28;20109;-61
2023/11/11 04:15:31;;;;;;;7.93;5.55;;;7.30;99.90;;;;;;4965753;28;20029;-59
2023/11/11 04:17:57;;;;;;;10.02;6.53;;;7.30;99.90;;;;;;4974524;28;20410;-57
2023/11/11 04:20:23;;;;;;;7.57;5.30;;;7.30;99.90;;;;;;4971699;28;21664;-58
2023/11/11 04:22:48;;;;;;;12.80;5.32;;;7.30;99.90;;;;;;4984742;28;20083;-58
2023/11/11 04:25:14;;;;;;;8.80;6.28;;;7.30;99.90;;;;;;4991863;28;20061;-57
2023/11/11 04:27:43;;;;;;;6.30;5.28;;;7.30;99.90;;;;;;4972957;28;20049;-59
2023/11/11 04:30:10;;;;;;;7.88;5.68;;;7.30;99.90;;;;;;4970703;28;20047;-58
2023/11/11 04:32:36;;;;;;;7.20;5.28;;;7.30;99.90;;;;;;4987482;28;20112;-59
2023/11/11 04:35:03;;;;;;;8.45;5.47;;;7.30;99.90;;;;;;4995735;28;20034;-61
2023/11/11 04:37:30;;;;;;;9.05;5.25;;;7.20;99.90;;;;;;5009333;28;20465;-59
2023/11/11 04:39:58;;;;;;;8.25;5.63;;;7.20;99.90;;;;;;4968568;28;20053;-58
2023/11/11 04:42:26;;;;;;;8.60;5.28;;;7.20;99.90;;;;;;4967508;28;20026;-57
2023/11/11 04:44:53;;;;;;;8.77;5.32;;;7.20;99.90;;;;;;4969459;28;20548;-57
2023/11/11 04:47:21;;;;;;;7.65;5.15;;;7.20;99.90;;;;;;4980576;28;20034;-59
2023/11/11 04:49:48;;;;;;;8.73;6.22;;;7.20;99.90;;;;;;5011964;28;20021;-59
2023/11/11 04:52:13;;;;;;;7.03;5.65;;;7.20;99.90;;;;;;4986191;28;20022;-58
2023/11/11 04:54:39;;;;;;;7.00;5.30;;;7.20;99.90;;;;;;4985361;28;20032;-59
2023/11/11 04:57:05;;;;;;;8.13;6.32;;;7.20;99.90;;;;;;4964512;28;20063;-59
2023/11/11 04:59:30;;;;;;;5.97;4.80;;;7.20;99.90;;;;;;4987599;28;20098;-57
2023/11/11 05:01:56;;;;;;;8.27;5.13;;;7.20;99.90;;;;;;5007908;28;20037;-58
2023/11/11 05:04:22;;;;;;;7.28;5.15;;;7.20;99.90;;;;;;4938561;28;20026;-59
2023/11/11 05:06:48;;;;;;;8.40;5.40;;;7.20;99.90;;;;;;4978304;28;20026;-59
2023/11/11 05:09:15;;;;;;;7.60;5.75;;;7.20;99.90;;;;;;4960632;28;20023;-58
2023/11/11 05:11:41;;;;;;;7.82;5.32;;;7.20;99.90;;;;;;4976438;28;20018;-58
2023/11/11 05:14:09;;;;;;;8.48;5.65;;;7.20;99.90;;;;;;4977345;28;20025;-60
2023/11/11 05:16:39;;;;;;;8.32;6.25;;;7.30;99.90;;;;;;4989851;28;20032;-56
2023/11/11 05:19:08;;;;;;;9.25;5.43;;;7.20;99.90;;;;;;4974986;28;20069;-57
2023/11/11 05:21:34;;;;;;;6.88;5.35;;;7.30;99.90;;;;;;4983730;28;20026;-57
2023/11/11 05:24:00;;;;;;;8.35;6.00;;;7.20;99.90;;;;;;4957278;28;20022;-57
2023/11/11 05:26:27;;;;;;;10.63;6.07;;;7.20;99.90;;;;;;4954440;28;21524;-58
2023/11/11 05:28:55;;;;;;;7.90;5.75;;;7.30;99.90;;;;;;4979790;28;20435;-57
2023/11/11 05:31:21;;;;;;;6.85;5.35;;;7.20;99.90;;;;;;4965814;28;20167;-58
2023/11/11 05:33:46;;;;;;;8.00;5.80;;;7.30;99.90;;;;;;4996254;28;20106;-58
2023/11/11 05:36:13;;;;;;;8.13;5.70;;;7.20;99.90;;;;;;4961117;28;20036;-58
2023/11/11 05:38:39;;;;;;;11.20;6.32;;;7.30;99.90;;;;;;4943826;28;20155;-58
2023/11/11 05:41:05;;;;;;;7.07;5.13;;;7.20;99.90;;;;;;4972924;28;20112;-61
2023/11/11 05:43:30;;;;;;;8.30;5.10;;;7.20;99.90;;;;;;5002133;28;20028;-58
2023/11/11 05:45:56;;;;;;;7.68;5.30;;;7.20;99.90;;;;;;4943403;28;21462;-57
2023/11/11 05:48:22;;;;;;;6.72;5.07;;;7.20;99.90;;;;;;4949874;28;20030;-56
2023/11/11 05:50:47;;;;;;;6.78;5.07;;;7.20;99.90;;;;;;4933381;28;20014;-56
2023/11/11 05:53:14;;;;;;;5.72;4.45;;;7.10;99.90;;;;;;4931393;28;20033;-57
2023/11/11 05:55:39;;;;;;;6.65;5.43;;;7.10;99.90;;;;;;4942703;28;21382;-58
2023/11/11 05:58:05;;;;;;;6.35;4.80;;;7.10;99.90;;;;;;4976990;28;20406;-57
2023/11/11 06:00:30;;;;;;;6.60;5.45;;;7.10;99.90;;;;;;4961372;28;20076;-58
2023/11/11 06:02:56;;;;;;;7.93;5.22;;;7.00;99.90;;;;;;4921538;28;20041;-57
2023/11/11 06:05:21;;;;;;;6.38;5.10;;;7.00;99.90;;;;;;4949394;28;21269;-57
2023/11/11 06:07:47;;;;;;;7.80;5.80;;;7.00;99.90;;;;;;4991416;28;20080;-58
2023/11/11 06:10:14;;;;;;;6.55;5.07;;;7.00;99.90;;;;;;4946404;28;20022;-56
2023/11/11 06:12:39;;;;;;;4.90;4.28;;;6.90;99.90;;;;;;4934637;28;20030;-60
2023/11/11 06:15:08;;;;;;;7.50;4.57;;;6.90;99.90;;;;;;4964363;28;20084;-58
2023/11/11 06:17:34;;;;;;;5.18;3.88;;;6.90;99.90;;;;;;4931845;28;20038;-59
2023/11/11 06:19:59;;;;;;;8.05;4.85;;;6.80;99.90;;;;;;4957349;28;20104;-59
2023/11/11 06:22:26;;;;;;;5.15;4.38;;;6.80;99.90;;;;;;4985760;28;20034;-59
2023/11/11 06:24:51;;;;;;;10.65;4.78;;;6.80;99.90;;;;;;4921534;28;20026;-59
2023/11/11 06:27:17;;;;;;;7.63;4.68;;;6.70;99.90;;;;;;4955015;28;20044;-59
2023/11/11 06:29:42;;;;;;;5.88;4.85;;;6.70;99.90;;;;;;4960162;28;20072;-58
2023/11/11 06:32:08;;;;;;;5.20;4.68;;;6.70;99.90;;;;;;4947058;28;20038;-60
2023/11/11 06:34:34;;;;;;;6.07;4.55;;;6.70;99.90;;;;;;4962345;28;20033;-56
2023/11/11 06:36:59;;;;;;;10.38;5.82;;;6.70;99.90;;;;;;4910514;28;21560;-59
2023/11/11 06:39:25;;;;;;;5.47;4.13;;;6.70;99.90;;;;;;4962401;28;20587;-59
2023/11/11 06:41:51;;;;;;;6.38;4.78;;;6.70;99.90;;;;;;4929327;28;20400;-58
2023/11/11 06:44:16;;;;;;;8.43;5.35;;;6.70;99.90;;;;;;4951872;28;20117;-59
2023/11/11 06:46:42;;;;;;;7.15;5.43;;;6.70;99.90;;;;;;4998659;28;20100;-58
2023/11/11 06:49:07;;;;;;;5.45;4.72;;;6.70;99.90;;;;;;4927897;28;20026;-57
2023/11/11 06:51:34;;;;;;;7.60;5.35;;;6.70;99.90;;;;;;4945809;28;20027;-54
2023/11/11 06:54:00;;;;;;;9.55;6.63;;;6.80;99.90;;;;;;4900719;28;20021;-59
2023/11/11 06:56:26;;;;;;;9.20;6.20;;;6.80;99.90;;;;;;4903137;28;21985;-59
2023/11/11 06:58:52;;;;;;;9.55;5.88;;;6.80;99.90;;;;;;4982683;28;20113;-59
2023/11/11 07:01:22;;;;;;;13.95;7.00;;;6.80;99.90;;;;;;4908027;28;20130;-60
2023/11/11 07:03:49;;;;;;;8.98;7.20;;;6.80;99.90;;;;;;4904313;28;20045;-58
2023/11/11 07:06:22;;;;;;;15.50;8.95;;;6.80;99.90;;;;;;4960282;28;20022;-58
2023/11/11 07:08:48;;;;;;;13.00;8.35;;;6.90;99.90;;;;;;4918271;28;20033;-57
2023/11/11 07:11:15;;;;;;;10.27;7.78;;;6.90;99.90;;;;;;4917202;28;20022;-58
2023/11/11 07:13:41;;;;;;;14.07;8.40;;;6.90;99.90;;;;;;4974315;28;20108;-57
2023/11/11 07:16:08;;;;;;;10.23;7.57;;;6.90;99.90;;;;;;4922468;28;20081;-58
2023/11/11 07:18:35;;;;;;;11.30;8.45;;;6.90;99.90;;;;;;4911135;28;20084;-58
2023/11/11 07:21:01;;;;;;;9.85;7.90;;;6.90;99.90;;;;;;4950466;28;20550;-57
2023/11/11 07:23:27;;;;;;;13.23;8.18;;;7.00;99.90;;;;;;4892262;28;21734;-59
2023/11/11 07:25:54;;;;;;;10.18;6.95;;;7.00;99.90;;;;;;4966852;28;20073;-57
2023/11/11 07:28:20;;;;;;;13.50;7.90;;;7.00;99.90;;;;;;4938125;28;20116;-56
2023/11/11 07:30:45;;;;;;;10.60;8.25;;;7.00;99.90;;;;;;4909741;28;20018;-59
2023/11/11 07:33:11;;;;;;;12.30;7.57;;;7.00;99.90;;;;;;4941939;28;20026;-55
2023/11/11 07:35:36;;;;;;;12.68;8.48;;;7.10;99.90;;;;;;4907882;28;20211;-56
2023/11/11 07:38:04;;;;;;;12.05;7.78;;;7.10;99.90;;;;;;4964856;28;20032;-60
2023/11/11 07:40:29;;;;;;;16.67;8.43;;;7.10;99.90;;;;;;4926404;28;20554;-57
2023/11/11 07:42:58;;;;;;;10.68;7.75;;;7.10;99.90;;;;;;4910871;28;21906;-58
2023/11/11 07:45:24;;;;;;;12.13;8.38;;;7.10;99.90;;;;;;4923476;28;20037;-58
2023/11/11 07:47:50;;;;;;;15.02;8.57;;;7.10;99.90;;;;;;4935124;28;20087;-58
2023/11/11 07:50:17;;;;;;;12.50;8.48;;;7.20;99.90;;;;;;4889634;28;20026;-54
2023/11/11 07:52:43;;;;;;;13.15;8.85;;;7.20;99.90;;;;;;4971039;28;20022;-56
2023/11/11 07:55:10;;;;;;;13.85;9.60;;;7.20;99.90;;;;;;4910314;28;20014;-58
2023/11/11 07:57:36;;;;;;;18.35;10.27;;;7.20;99.90;;;;;;4943718;28;20087;-60
2023/11/11 08:00:06;;;;;;;20.67;15.25;;;7.20;99.90;;;;;;4972683;28;20026;-59
2023/11/11 08:02:32;;;;;;;18.80;12.80;;;7.20;99.90;;;;;;4925961;28;20037;-56
2023/11/11 08:04:57;;;;;;;16.63;11.48;;;7.30;99.90;;;;;;4970346;28;20088;-56
2023/11/11 08:07:23;;;;;;;17.15;10.75;;;7.30;99.90;;;;;;4894557;28;20081;-58
2023/11/11 08:09:50;;;;;;;17.85;11.57;;;7.30;99.90;;;;;;5010032;28;20037;-55
2023/11/11 08:12:17;;;;;;;17.88;12.18;;;7.30;99.90;;;;;;5002208;28;20401;-58
2023/11/11 08:14:42;;;;;;;19.63;13.40;;;7.30;99.90;;;;;;4939165;28;20014;-57
2023/11/11 08:17:08;;;;;;;23.65;16.30;;;7.30;99.90;;;;;;4941683;28;20523;-58
2023/11/11 08:19:33;;;;;;;18.23;12.43;;;7.30;99.90;;;;;;4934952;28;20030;-57
2023/11/11 08:21:59;;;;;;;20.42;11.27;;;7.30;99.90;;;;;;4952946;28;21476;-58
2023/11/11 08:24:25;;;;;;;16.25;10.52;;;7.30;99.90;;;;;;4934647;28;20033;-56
2023/11/11 08:26:50;;;;;;;15.68;10.75;;;7.30;99.90;;;;;;4945691;28;20058;-58
2023/11/11 08:29:16;;;;;;;15.55;10.15;;;7.40;99.90;;;;;;4957415;28;20113;-58
2023/11/11 08:31:42;;;;;;;18.92;11.55;;;7.40;99.90;;;;;;4991066;28;20385;-58
2023/11/11 08:34:08;;;;;;;15.73;11.48;;;7.30;99.90;;;;;;4954330;28;20025;-58
2023/11/11 08:36:35;;;;;;;16.52;10.68;;;7.30;99.90;;;;;;4947065;28;20133;-59
2023/11/11 08:39:00;;;;;;;13.88;10.15;;;7.40;99.90;;;;;;4934995;28;20074;-56
2023/11/11 08:41:27;;;;;;;14.23;10.02;;;7.40;99.90;;;;;;4951015;28;21347;-57
2023/11/11 08:43:53;;;;;;;17.67;11.15;;;7.30;99.90;;;;;;4995723;28;20474;-55
2023/11/11 08:46:18;;;;;;;16.40;10.90;;;7.40;99.90;;;;;;4963505;28;20032;-59
2023/11/11 08:48:44;;;;;;;14.80;10.02;;;7.40;99.90;;;;;;4932963;28;20033;-59
2023/11/11 08:51:12;;;;;;;16.70;11.63;;;7.40;99.90;;;;;;4980277;28;20033;-59
2023/11/11 08:53:38;;;;;;;15.68;9.60;;;7.40;99.90;;;;;;4965171;28;20029;-58
2023/11/11 08:56:05;;;;;;;14.68;10.95;;;7.40;99.90;;;;;;4993118;28;20018;-60
2023/11/11 08:58:30;;;;;;;16.10;10.80;;;7.40;99.90;;;;;;4937718;28;20046;-59
2023/11/11 09:00:56;;;;;;;15.00;10.00;;;7.50;99.90;;;;;;4964215;28;20030;-58
2023/11/11 09:03:22;;;;;;;15.70;10.00;;;7.50;99.90;;;;;;4942583;28;21628;-59
2023/11/11 09:05:48;;;;;;;19.77;11.20;;;7.60;99.90;;;;;;4965971;28;20072;-56
2023/11/11 09:08:13;;;;;;;17.85;12.07;;;7.60;99.90;;;;;;4926425;28;20057;-60
2023/11/11 09:10:40;;;;;;;21.85;13.00;;;7.70;99.90;;;;;;4954137;28;20110;-59
2023/11/11 09:13:08;;;;;;;16.75;12.35;;;7.70;99.90;;;;;;4951748;28;20018;-57
2023/11/11 09:15:33;;;;;;;18.67;11.45;;;7.70;99.90;;;;;;4990127;28;20053;-58
2023/11/11 09:18:00;;;;;;;19.27;11.10;;;7.70;99.90;;;;;;4926819;28;20882;-57
2023/11/11 09:20:26;;;;;;;16.20;10.52;;;7.70;99.90;;;;;;4968199;28;22277;-58
2023/11/11 09:22:51;;;;;;;15.50;11.18;;;7.80;99.90;;;;;;4988240;28;20028;-58
2023/11/11 09:25:18;;;;;;;23.27;12.55;;;7.80;99.90;;;;;;4977399;28;20026;-58
2023/11/11 09:27:43;;;;;;;20.98;12.80;;;7.80;99.90;;;;;;4999661;28;20044;-57
2023/11/11 09:30:09;;;;;;;17.50;12.15;;;7.90;99.90;;;;;;4979104;28;20530;-59
2023/11/11 09:32:35;;;;;;;15.68;11.70;;;7.90;99.90;;;;;;5001453;28;20036;-58
2023/11/11 09:35:00;;;;;;;17.55;12.07;;;7.90;99.90;;;;;;4991304;28;20038;-55
2023/11/11 09:37:26;;;;;;;19.13;11.93;;;8.00;99.90;;;;;;4973052;28;20371;-60
2023/11/11 09:39:51;;;;;;;18.08;13.05;;;8.00;99.90;;;;;;4972821;28;20436;-57
2023/11/11 09:42:17;;;;;;;16.65;12.15;;;8.00;99.90;;;;;;4989481;28;20555;-58
2023/11/11 09:44:43;;;;;;;18.13;13.05;;;8.10;99.90;;;;;;5018362;28;20034;-58
2023/11/11 09:47:14;;;;;;;22.60;12.10;;;8.10;99.90;;;;;;4979612;28;20518;-57
2023/11/11 09:49:40;;;;;;;15.77;12.48;;;8.10;99.90;;;;;;4976563;28;20077;-59
2023/11/11 09:52:08;;;;;;;18.75;12.55;;;8.10;99.90;;;;;;4975346;28;20025;-59
2023/11/11 09:54:34;;;;;;;16.55;12.88;;;8.10;99.90;;;;;;4975939;28;20029;-58
2023/11/11 09:57:01;;;;;;;17.27;12.02;;;8.10;99.90;;;;;;4983335;28;20036;-58
2023/11/11 09:59:28;;;;;;;15.70;11.25;;;8.20;99.90;;;;;;4975156;28;20087;-58
2023/11/11 10:01:55;;;;;;;16.05;10.27;;;8.20;99.90;;;;;;4974303;28;20024;-57
2023/11/11 10:04:21;;;;;;;14.35;9.70;;;8.20;99.90;;;;;;4976022;28;20041;-57
2023/11/11 10:06:48;;;;;;;13.68;10.15;;;8.20;99.90;;;;;;4981077;28;20802;-58
2023/11/11 10:09:17;;;;;;;14.88;10.27;;;8.20;99.90;;;;;;4965389;28;20021;-58
2023/11/11 10:11:44;;;;;;;16.30;10.73;;;8.20;99.90;;;;;;4975832;28;20026;-57
2023/11/11 10:14:13;;;;;;;14.80;10.52;;;8.20;99.90;;;;;;4974796;28;20477;-58
2023/11/11 10:16:42;;;;;;;16.67;10.38;;;8.30;99.90;;;;;;4959810;28;20105;-58
2023/11/11 10:19:11;;;;;;;16.75;10.43;;;8.30;99.90;;;;;;4960566;28;20032;-58
2023/11/11 10:21:39;;;;;;;13.00;9.48;;;8.30;99.90;;;;;;4955022;28;20029;-58
2023/11/11 10:24:08;;;;;;;10.43;8.30;;;8.30;99.90;;;;;;4977211;28;20129;-60
2023/11/11 10:26:34;;;;;;;11.40;8.20;;;8.30;99.90;;;;;;4982069;28;20018;-58
2023/11/11 10:29:06;;;;;;;12.70;9.90;;;8.30;99.90;;;;;;4963209;28;20036;-57
2023/11/11 10:31:36;;;;;;;15.77;8.82;;;8.30;99.90;;;;;;4945712;28;20026;-57
2023/11/11 10:34:02;;;;;;;10.75;8.00;;;8.30;99.90;;;;;;4948640;28;20021;-59
2023/11/11 10:36:27;;;;;;;14.05;8.55;;;8.30;99.90;;;;;;4949272;28;21326;-59
2023/11/11 10:38:54;;;;;;;11.45;8.20;;;8.20;99.90;;;;;;4992619;28;20426;-59
2023/11/11 10:41:20;;;;;;;14.30;9.43;;;8.20;99.90;;;;;;4978683;28;20134;-58
2023/11/11 10:43:46;;;;;;;13.20;8.73;;;8.20;99.90;;;;;;4955352;28;20445;-58
2023/11/11 10:46:12;;;;;;;14.93;9.52;;;8.30;99.90;;;;;;4964359;28;20433;-57
2023/11/11 10:48:38;;;;;;;11.20;8.55;;;8.30;99.90;;;;;;4954974;28;20100;-59
2023/11/11 10:51:06;;;;;;;14.25;8.43;;;8.30;99.90;;;;;;4947845;28;20103;-60
2023/11/11 10:53:33;;;;;;;12.00;7.75;;;8.30;99.90;;;;;;4966162;28;20161;-58
2023/11/11 10:56:00;;;;;;;11.55;7.82;;;8.40;99.90;;;;;;4985957;28;20137;-59
2023/11/11 10:58:28;;;;;;;11.00;7.93;;;8.40;99.90;;;;;;4972633;28;20022;-58
2023/11/11 11:00:54;;;;;;;10.05;7.13;;;8.40;99.90;;;;;;4945426;28;20110;-59
2023/11/11 11:03:21;;;;;;;13.52;8.40;;;8.40;99.90;;;;;;4940166;28;20040;-58
2023/11/11 11:06:17;;;;;;;10.77;7.45;;;8.50;99.90;;;;;;4969315;28;20091;-55
2023/11/11 11:09:14;;;;;;;13.32;7.40;;;8.50;99.90;;;;;;4987443;28;20025;-58
2023/11/11 11:12:10;;;;;;;10.30;7.50;;;8.50;99.90;;;;;;4989196;28;20109;-59
2023/11/11 11:14:43;;;;;;;11.25;7.63;;;8.50;99.90;;;;;;4927085;28;20087;-57
2023/11/11 11:17:10;;;;;;;9.15;6.63;;;8.50;99.90;;;;;;4983398;28;20057;-57
2023/11/11 11:20:08;;;;;;;9.95;6.50;;;8.50;99.90;;;;;;4970297;28;20483;-58
2023/11/11 11:25:34;;;;;;;10.52;6.10;;;8.40;99.90;;;;;;4960679;28;20395;-49
2023/11/11 11:28:11;;;;;;;10.70;6.35;;;8.30;99.90;;;;;;4936703;28;20161;-51
2023/11/11 11:30:49;;;;;;;10.55;6.65;;;8.30;99.90;;;;;;4950730;28;20030;-51
2023/11/11 11:33:15;;;;;;;11.02;7.38;;;8.30;99.90;;;;;;4932111;28;20482;-52
2023/11/11 11:35:47;;;;;;;10.88;6.60;;;8.30;99.90;;;;;;4980120;28;20025;-55
2023/11/11 11:38:18;;;;;;;16.55;10.63;;;8.30;99.90;;;;;;4936477;28;20084;-54
2023/11/11 11:40:45;;;;;;;11.38;7.90;;;8.30;99.90;;;;;;4930047;28;20074;-53
2023/11/11 11:43:11;;;;;;;12.05;8.32;;;8.30;99.90;;;;;;4958257;28;20022;-55
2023/11/11 11:45:38;;;;;;;14.80;9.70;;;8.30;99.90;;;;;;4930781;28;20662;-50
2023/11/11 11:48:07;;;;;;;17.88;10.95;;;8.30;99.90;;;;;;4971442;28;20109;-60
2023/11/11 11:50:36;;;;;;;15.15;9.45;;;8.30;99.90;;;;;;4960256;28;20030;-50
2023/11/11 11:53:03;;;;;;;8.20;5.93;;;8.30;99.90;;;;;;4912012;28;21438;-53
2023/11/11 11:55:40;;;;;;;8.43;5.13;;;8.40;99.90;;;;;;4944228;28;20018;-49
2023/11/11 11:58:06;;;;;;;9.60;5.53;;;8.30;99.90;;;;;;4945102;28;20482;-51
2023/11/11 12:00:36;;;;;;;8.57;5.22;;;8.40;99.90;;;;;;4922661;28;21486;-52
2023/11/11 12:03:02;;;;;;;8.00;4.55;;;8.40;99.90;;;;;;4971433;28;20022;-59
2023/11/11 12:05:28;;;;;;;8.52;4.63;;;8.30;99.90;;;;;;4937280;28;20766;-49
2023/11/11 12:07:54;;;;;;;6.25;4.70;;;8.30;99.90;;;;;;4923172;28;20113;-58
2023/11/11 12:10:20;;;;;;;5.47;4.45;;;8.30;99.90;;;;;;4904678;28;20030;-49
2023/11/11 12:12:47;;;;;;;7.20;5.30;;;8.30;99.90;;;;;;4909513;28;20028;-52
2023/11/11 12:15:15;;;;;;;7.97;4.43;;;8.30;99.90;;;;;;4939116;28;20453;-59
2023/11/11 12:17:46;;;;;;;6.05;4.00;;;8.30;99.90;;;;;;4971002;28;20037;-50
2023/11/11 12:20:14;;;;;;;5.63;3.17;;;8.30;99.90;;;;;;4919233;28;20026;-56
2023/11/11 12:22:44;;;;;;;5.18;3.17;;;8.40;99.90;;;;;;4939340;28;20035;-57
2023/11/11 12:25:10;;;;;;;5.15;3.35;;;8.30;99.90;;;;;;4954333;28;20107;-52
2023/11/11 12:27:42;;;;;;;5.55;3.03;;;8.30;99.90;;;;;;4920758;28;20029;-47
2023/11/11 12:30:21;;;;;;;4.45;2.83;;;8.30;99.90;;;;;;4947539;28;20022;-58
2023/11/11 12:33:06;;;;;;;5.70;3.95;;;8.40;99.90;;;;;;4967839;28;20548;-53
2023/11/11 12:35:33;;;;;;;12.65;7.57;;;8.40;99.90;;;;;;4941524;28;20034;-49
2023/11/11 12:38:19;;;;;;;13.48;8.45;;;8.40;99.90;;;;;;4912753;28;21320;-50
2023/11/11 12:40:45;;;;;;;13.40;7.60;;;8.40;99.90;;;;;;4935061;28;20038;-59
2023/11/11 12:43:12;;;;;;;4.88;3.80;;;8.40;99.90;;;;;;4953150;28;20053;-51
2023/11/11 12:45:38;;;;;;;4.72;2.70;;;8.40;99.90;;;;;;4876572;28;20048;-51
2023/11/11 12:48:03;;;;;;;5.18;3.15;;;8.40;99.90;;;;;;4934279;28;20030;-58
2023/11/11 12:50:32;;;;;;;4.18;2.70;;;8.50;99.90;;;;;;4904486;28;20097;-53
2023/11/11 12:53:03;;;;;;;2.58;2.25;;;8.50;99.90;;;;;;4912047;28;21226;-47